Aeroporto :
LOGIN :

Iscrizione | Disclaimer

   EN    FR    IT 

 










Sommario :    VFR   VFR Marginale   IFR   IFR Intensivo   IFR Molto Intensivo
Visibilità : 
Base nubi : 
>= 8 km
>= 3000ft
5 / 8 km
1000 / 3000 ft
1500m / 5 km
500 / 1000 ft
800 / 1500m
200 / 500 ft
< 800m
< 200 ft
Simboli :   Temporali  Nebbia  Neve Forte  Precipitazioni Forti  Vento > 20 kt
SIGMETs :   Varie  Temporali  Ghiacco  Turbolenza  Onda orograficha  Ceneri Vulcaniche






- Altitudine del aeroporto : 2077 ft
- Codice IATA : FMM


EDJA - Memmingen

ULTIMO METAR :
  • 230820Z 04006KT 010V070 9999 FEW020 15/11 Q1016

METARs OBSOLETI :
  • 230750Z 01007KT 9999 FEW007 14/11 Q1017
  • 230720Z 03005KT 9999 FEW014 14/11 Q1017
  • 230650Z VRB01KT CAVOK 14/10 Q1017
  • 230620Z VRB01KT CAVOK 13/10 Q1017
  • 230550Z 00000KT CAVOK 13/10 Q1017
  • 230520Z 00000KT CAVOK 12/11 Q1016
  • 230450Z VRB01KT 9999 FEW002 09/09 Q1016
  • 230420Z VRB01KT 9999 FEW002 08/07 Q1016

TAF TAF EDJA
Valido dal 23 a 09 ore il 23 a 18 ore UTC


230800Z 2309/2318 03005KT 9999 FEW020
TEMPO 2312/2316 24020G35KT 4000 TSRA BKN008CB
BECMG 2316/2318 26005KT
TEMPO 2316/2318 RA BKN005



MetMap, La meteo Aeronautica in un colpo d'occhio ! - Copyright ORBIFLY Dicembre 2007 - Disclaimer

ORBIFLY MET'MAP TEAM :

Programmazione e sviluppo : Alexandra Zaïnal
Concezione : Baudouin d'Aumeries
Supporto tecnico e logistico : Manuel Goepfert
Aiuto : Marc-Olivier Méhu
Aiuto per la traduzione : Arnaldo La Scala




FONTI E CREDITI :

   NOAA